sensor_id;sensor_type;location;lat;lon;timestamp;temperature;humidity
59469;DHT22;45277;52.768;18.262;2023-09-12T00:00:20;14.60;99.90
59469;DHT22;45277;52.768;18.262;2023-09-12T00:02:11;14.60;99.90
59469;DHT22;45277;52.768;18.262;2023-09-12T00:03:43;14.60;99.90
59469;DHT22;45277;52.768;18.262;2023-09-12T00:05:14;14.60;99.90
59469;DHT22;45277;52.768;18.262;2023-09-12T00:06:46;14.60;99.90
59469;DHT22;45277;52.768;18.262;2023-09-12T00:08:17;14.60;99.90
59469;DHT22;45277;52.768;18.262;2023-09-12T00:09:48;14.60;99.90
59469;DHT22;45277;52.768;18.262;2023-09-12T00:11:20;14.60;99.90
59469;DHT22;45277;52.768;18.262;2023-09-12T00:12:51;14.60;99.90
59469;DHT22;45277;52.768;18.262;2023-09-12T00:14:22;14.50;99.90
59469;DHT22;45277;52.768;18.262;2023-09-12T00:15:54;14.50;99.90
59469;DHT22;45277;52.768;18.262;2023-09-12T00:17:25;14.50;99.90
59469;DHT22;45277;52.768;18.262;2023-09-12T00:18:57;14.50;99.90
59469;DHT22;45277;52.768;18.262;2023-09-12T00:20:29;14.50;99.90
59469;DHT22;45277;52.768;18.262;2023-09-12T00:22:00;14.50;99.90
59469;DHT22;45277;52.768;18.262;2023-09-12T00:23:32;14.50;99.90
59469;DHT22;45277;52.768;18.262;2023-09-12T00:25:03;14.50;99.90
59469;DHT22;45277;52.768;18.262;2023-09-12T00:26:35;14.40;99.90
59469;DHT22;45277;52.768;18.262;2023-09-12T00:28:06;14.40;99.90
59469;DHT22;45277;52.768;18.262;2023-09-12T00:29:38;14.40;99.90
59469;DHT22;45277;52.768;18.262;2023-09-12T00:31:09;14.40;99.90
59469;DHT22;45277;52.768;18.262;2023-09-12T00:32:40;14.40;99.90
59469;DHT22;45277;52.768;18.262;2023-09-12T00:34:16;14.40;99.90
59469;DHT22;45277;52.768;18.262;2023-09-12T00:35:48;14.40;99.90
59469;DHT22;45277;52.768;18.262;2023-09-12T00:37:19;14.40;99.90
59469;DHT22;45277;52.768;18.262;2023-09-12T00:38:50;14.40;99.90
59469;DHT22;45277;52.768;18.262;2023-09-12T00:40:22;14.40;99.90
59469;DHT22;45277;52.768;18.262;2023-09-12T00:41:53;14.40;99.90
59469;DHT22;45277;52.768;18.262;2023-09-12T00:43:24;14.30;99.90
59469;DHT22;45277;52.768;18.262;2023-09-12T00:44:56;14.30;99.90
59469;DHT22;45277;52.768;18.262;2023-09-12T00:46:27;14.40;99.90
59469;DHT22;45277;52.768;18.262;2023-09-12T00:48:01;14.30;99.90
59469;DHT22;45277;52.768;18.262;2023-09-12T00:49:34;14.30;99.90
59469;DHT22;45277;52.768;18.262;2023-09-12T00:51:06;14.20;99.90
59469;DHT22;45277;52.768;18.262;2023-09-12T00:52:38;14.20;99.90
59469;DHT22;45277;52.768;18.262;2023-09-12T00:54:11;14.10;99.90
59469;DHT22;45277;52.768;18.262;2023-09-12T00:55:48;14.10;99.90
59469;DHT22;45277;52.768;18.262;2023-09-12T00:57:21;14.00;99.90
59469;DHT22;45277;52.768;18.262;2023-09-12T00:58:53;14.00;99.90
59469;DHT22;45277;52.768;18.262;2023-09-12T01:00:24;13.90;99.90
59469;DHT22;45277;52.768;18.262;2023-09-12T01:02:27;13.90;99.90
59469;DHT22;45277;52.768;18.262;2023-09-12T01:03:58;13.80;99.90
59469;DHT22;45277;52.768;18.262;2023-09-12T01:05:30;13.80;99.90
59469;DHT22;45277;52.768;18.262;2023-09-12T01:07:03;13.80;99.90
59469;DHT22;45277;52.768;18.262;2023-09-12T01:08:35;13.80;99.90
59469;DHT22;45277;52.768;18.262;2023-09-12T01:10:09;13.80;99.90
59469;DHT22;45277;52.768;18.262;2023-09-12T01:11:41;13.80;99.90
59469;DHT22;45277;52.768;18.262;2023-09-12T01:13:14;13.80;99.90
59469;DHT22;45277;52.768;18.262;2023-09-12T01:14:45;13.90;99.90
59469;DHT22;45277;52.768;18.262;2023-09-12T01:16:17;13.90;99.90
59469;DHT22;45277;52.768;18.262;2023-09-12T01:17:48;13.90;99.90
59469;DHT22;45277;52.768;18.262;2023-09-12T01:19:20;13.90;99.90
59469;DHT22;45277;52.768;18.262;2023-09-12T01:25:08;13.80;99.90
59469;DHT22;45277;52.768;18.262;2023-09-12T01:28:42;13.70;99.90
59469;DHT22;45277;52.768;18.262;2023-09-12T01:30:21;13.70;99.90
59469;DHT22;45277;52.768;18.262;2023-09-12T01:31:54;13.70;99.90
59469;DHT22;45277;52.768;18.262;2023-09-12T01:33:26;13.70;99.90
59469;DHT22;45277;52.768;18.262;2023-09-12T01:34:57;13.60;99.90
59469;DHT22;45277;52.768;18.262;2023-09-12T01:36:29;13.60;99.90
59469;DHT22;45277;52.768;18.262;2023-09-12T01:38:00;13.60;99.90
59469;DHT22;45277;52.768;18.262;2023-09-12T01:39:32;13.60;99.90
59469;DHT22;45277;52.768;18.262;2023-09-12T01:41:04;13.60;99.90
59469;DHT22;45277;52.768;18.262;2023-09-12T01:42:37;13.60;99.90
59469;DHT22;45277;52.768;18.262;2023-09-12T01:44:09;13.60;99.90
59469;DHT22;45277;52.768;18.262;2023-09-12T01:45:45;13.70;99.90
59469;DHT22;45277;52.768;18.262;2023-09-12T01:47:18;13.70;99.90
59469;DHT22;45277;52.768;18.262;2023-09-12T01:48:51;13.70;99.90
59469;DHT22;45277;52.768;18.262;2023-09-12T01:50:26;13.70;99.90
59469;DHT22;45277;52.768;18.262;2023-09-12T01:52:00;13.70;99.90
59469;DHT22;45277;52.768;18.262;2023-09-12T01:53:33;13.70;99.90
59469;DHT22;45277;52.768;18.262;2023-09-12T01:55:07;13.70;99.90
59469;DHT22;45277;52.768;18.262;2023-09-12T01:56:40;13.70;99.90
59469;DHT22;45277;52.768;18.262;2023-09-12T01:58:13;13.70;99.90
59469;DHT22;45277;52.768;18.262;2023-09-12T01:59:45;13.70;99.90
59469;DHT22;45277;52.768;18.262;2023-09-12T02:01:16;13.70;99.90
59469;DHT22;45277;52.768;18.262;2023-09-12T02:02:48;13.70;99.90
59469;DHT22;45277;52.768;18.262;2023-09-12T02:04:19;13.70;99.90
59469;DHT22;45277;52.768;18.262;2023-09-12T02:05:51;13.70;99.90
59469;DHT22;45277;52.768;18.262;2023-09-12T02:07:24;13.70;99.90
59469;DHT22;45277;52.768;18.262;2023-09-12T02:08:58;13.70;99.90
59469;DHT22;45277;52.768;18.262;2023-09-12T02:10:29;13.70;99.90
59469;DHT22;45277;52.768;18.262;2023-09-12T02:12:00;13.60;99.90
59469;DHT22;45277;52.768;18.262;2023-09-12T02:13:32;13.60;99.90
59469;DHT22;45277;52.768;18.262;2023-09-12T02:15:04;13.60;99.90
59469;DHT22;45277;52.768;18.262;2023-09-12T02:16:36;13.60;99.90
59469;DHT22;45277;52.768;18.262;2023-09-12T02:18:11;13.60;99.90
59469;DHT22;45277;52.768;18.262;2023-09-12T02:19:42;13.60;99.90
59469;DHT22;45277;52.768;18.262;2023-09-12T02:21:14;13.60;99.90
59469;DHT22;45277;52.768;18.262;2023-09-12T02:22:47;13.50;99.90
59469;DHT22;45277;52.768;18.262;2023-09-12T02:24:18;13.50;99.90
59469;DHT22;45277;52.768;18.262;2023-09-12T02:25:52;13.50;99.90
59469;DHT22;45277;52.768;18.262;2023-09-12T02:27:23;13.50;99.90
59469;DHT22;45277;52.768;18.262;2023-09-12T02:28:54;13.50;99.90
59469;DHT22;45277;52.768;18.262;2023-09-12T02:30:26;13.60;99.90
59469;DHT22;45277;52.768;18.262;2023-09-12T02:31:58;13.60;99.90
59469;DHT22;45277;52.768;18.262;2023-09-12T02:33:29;13.60;99.90
59469;DHT22;45277;52.768;18.262;2023-09-12T02:35:00;13.60;99.90
59469;DHT22;45277;52.768;18.262;2023-09-12T02:36:32;13.60;99.90
59469;DHT22;45277;52.768;18.262;2023-09-12T02:38:03;13.60;99.90
59469;DHT22;45277;52.768;18.262;2023-09-12T02:39:35;13.60;99.90
59469;DHT22;45277;52.768;18.262;2023-09-12T02:41:06;13.60;99.90
59469;DHT22;45277;52.768;18.262;2023-09-12T02:42:38;13.50;99.90
59469;DHT22;45277;52.768;18.262;2023-09-12T02:44:09;13.50;99.90
59469;DHT22;45277;52.768;18.262;2023-09-12T02:45:40;13.50;99.90
59469;DHT22;45277;52.768;18.262;2023-09-12T02:47:12;13.50;99.90
59469;DHT22;45277;52.768;18.262;2023-09-12T02:48:43;13.40;99.90
59469;DHT22;45277;52.768;18.262;2023-09-12T02:50:14;13.40;99.90
59469;DHT22;45277;52.768;18.262;2023-09-12T02:51:46;13.40;99.90
59469;DHT22;45277;52.768;18.262;2023-09-12T02:53:17;13.40;99.90
59469;DHT22;45277;52.768;18.262;2023-09-12T02:54:49;13.30;99.90
59469;DHT22;45277;52.768;18.262;2023-09-12T02:56:20;13.30;99.90
59469;DHT22;45277;52.768;18.262;2023-09-12T02:57:52;13.40;99.90
59469;DHT22;45277;52.768;18.262;2023-09-12T02:59:24;13.40;99.90
59469;DHT22;45277;52.768;18.262;2023-09-12T03:00:55;13.40;99.90
59469;DHT22;45277;52.768;18.262;2023-09-12T03:02:26;13.40;99.90
59469;DHT22;45277;52.768;18.262;2023-09-12T03:04:00;13.40;99.90
59469;DHT22;45277;52.768;18.262;2023-09-12T03:05:31;13.40;99.90
59469;DHT22;45277;52.768;18.262;2023-09-12T03:07:03;13.40;99.90
59469;DHT22;45277;52.768;18.262;2023-09-12T03:08:34;13.40;99.90
59469;DHT22;45277;52.768;18.262;2023-09-12T03:10:06;13.40;99.90
59469;DHT22;45277;52.768;18.262;2023-09-12T03:11:37;13.40;99.90
59469;DHT22;45277;52.768;18.262;2023-09-12T03:13:11;13.30;99.90
59469;DHT22;45277;52.768;18.262;2023-09-12T03:14:43;13.30;99.90
59469;DHT22;45277;52.768;18.262;2023-09-12T03:16:15;13.30;99.90
59469;DHT22;45277;52.768;18.262;2023-09-12T03:17:46;13.30;99.90
59469;DHT22;45277;52.768;18.262;2023-09-12T03:19:17;13.30;99.90
59469;DHT22;45277;52.768;18.262;2023-09-12T03:20:49;13.30;99.90
59469;DHT22;45277;52.768;18.262;2023-09-12T03:22:20;13.30;99.90
59469;DHT22;45277;52.768;18.262;2023-09-12T03:23:52;13.20;99.90
59469;DHT22;45277;52.768;18.262;2023-09-12T03:25:23;13.30;99.90
59469;DHT22;45277;52.768;18.262;2023-09-12T03:26:55;13.30;99.90
59469;DHT22;45277;52.768;18.262;2023-09-12T03:28:26;13.30;99.90
59469;DHT22;45277;52.768;18.262;2023-09-12T03:29:57;13.30;99.90
59469;DHT22;45277;52.768;18.262;2023-09-12T03:31:29;13.30;99.90
59469;DHT22;45277;52.768;18.262;2023-09-12T03:33:00;13.30;99.90
59469;DHT22;45277;52.768;18.262;2023-09-12T03:34:32;13.30;99.90
59469;DHT22;45277;52.768;18.262;2023-09-12T03:36:04;13.40;99.90
59469;DHT22;45277;52.768;18.262;2023-09-12T03:37:36;13.40;99.90
59469;DHT22;45277;52.768;18.262;2023-09-12T03:39:11;13.40;99.90
59469;DHT22;45277;52.768;18.262;2023-09-12T03:40:44;13.30;99.90
59469;DHT22;45277;52.768;18.262;2023-09-12T03:42:16;13.40;99.90
59469;DHT22;45277;52.768;18.262;2023-09-12T03:43:47;13.40;99.90
59469;DHT22;45277;52.768;18.262;2023-09-12T03:45:18;13.40;99.90
59469;DHT22;45277;52.768;18.262;2023-09-12T03:46:50;13.40;99.90
59469;DHT22;45277;52.768;18.262;2023-09-12T03:48:21;13.40;99.90
59469;DHT22;45277;52.768;18.262;2023-09-12T03:49:52;13.40;99.90
59469;DHT22;45277;52.768;18.262;2023-09-12T03:51:24;13.50;99.90
59469;DHT22;45277;52.768;18.262;2023-09-12T03:52:56;13.50;99.90
59469;DHT22;45277;52.768;18.262;2023-09-12T03:54:27;13.50;99.90
59469;DHT22;45277;52.768;18.262;2023-09-12T03:55:59;13.50;99.90
59469;DHT22;45277;52.768;18.262;2023-09-12T03:57:30;13.50;99.90
59469;DHT22;45277;52.768;18.262;2023-09-12T03:59:02;13.50;99.90
59469;DHT22;45277;52.768;18.262;2023-09-12T04:00:34;13.40;99.90
59469;DHT22;45277;52.768;18.262;2023-09-12T04:02:05;13.40;99.90
59469;DHT22;45277;52.768;18.262;2023-09-12T04:03:37;13.40;99.90
59469;DHT22;45277;52.768;18.262;2023-09-12T04:05:08;13.40;99.90
59469;DHT22;45277;52.768;18.262;2023-09-12T04:06:40;13.40;99.90
59469;DHT22;45277;52.768;18.262;2023-09-12T04:08:12;13.40;99.90
59469;DHT22;45277;52.768;18.262;2023-09-12T04:09:43;13.50;99.90
59469;DHT22;45277;52.768;18.262;2023-09-12T04:11:14;13.50;99.90
59469;DHT22;45277;52.768;18.262;2023-09-12T04:12:46;13.50;99.90
59469;DHT22;45277;52.768;18.262;2023-09-12T04:14:17;13.50;99.90
59469;DHT22;45277;52.768;18.262;2023-09-12T04:15:48;13.40;99.90
59469;DHT22;45277;52.768;18.262;2023-09-12T04:17:20;13.50;99.90
59469;DHT22;45277;52.768;18.262;2023-09-12T04:18:51;13.40;99.90
59469;DHT22;45277;52.768;18.262;2023-09-12T04:20:23;13.40;99.90
59469;DHT22;45277;52.768;18.262;2023-09-12T04:21:54;13.40;99.90
59469;DHT22;45277;52.768;18.262;2023-09-12T04:23:25;13.30;99.90
59469;DHT22;45277;52.768;18.262;2023-09-12T04:24:57;13.30;99.90
59469;DHT22;45277;52.768;18.262;2023-09-12T04:26:28;13.30;99.90
59469;DHT22;45277;52.768;18.262;2023-09-12T04:28:00;13.20;99.90
59469;DHT22;45277;52.768;18.262;2023-09-12T04:29:34;13.30;99.90
59469;DHT22;45277;52.768;18.262;2023-09-12T04:31:06;13.30;99.90
59469;DHT22;45277;52.768;18.262;2023-09-12T04:32:37;13.30;99.90
59469;DHT22;45277;52.768;18.262;2023-09-12T04:34:09;13.30;99.90
59469;DHT22;45277;52.768;18.262;2023-09-12T04:35:40;13.30;99.90
59469;DHT22;45277;52.768;18.262;2023-09-12T04:37:12;13.30;99.90
59469;DHT22;45277;52.768;18.262;2023-09-12T04:38:43;13.30;99.90
59469;DHT22;45277;52.768;18.262;2023-09-12T04:40:15;13.30;99.90
59469;DHT22;45277;52.768;18.262;2023-09-12T04:41:46;13.30;99.90
59469;DHT22;45277;52.768;18.262;2023-09-12T04:43:17;13.30;99.90
59469;DHT22;45277;52.768;18.262;2023-09-12T04:44:49;13.40;99.90
59469;DHT22;45277;52.768;18.262;2023-09-12T04:46:20;13.40;99.90
59469;DHT22;45277;52.768;18.262;2023-09-12T04:47:52;13.50;99.90
59469;DHT22;45277;52.768;18.262;2023-09-12T04:49:24;13.50;99.90
59469;DHT22;45277;52.768;18.262;2023-09-12T04:50:55;13.60;99.90
59469;DHT22;45277;52.768;18.262;2023-09-12T04:52:27;13.60;99.90
59469;DHT22;45277;52.768;18.262;2023-09-12T04:54:00;13.60;99.90
59469;DHT22;45277;52.768;18.262;2023-09-12T04:55:31;13.70;99.90
59469;DHT22;45277;52.768;18.262;2023-09-12T04:57:02;13.70;99.90
59469;DHT22;45277;52.768;18.262;2023-09-12T04:58:34;13.70;99.90
59469;DHT22;45277;52.768;18.262;2023-09-12T05:00:06;13.80;99.90
59469;DHT22;45277;52.768;18.262;2023-09-12T05:01:37;13.80;99.90
59469;DHT22;45277;52.768;18.262;2023-09-12T05:03:09;13.90;99.90
59469;DHT22;45277;52.768;18.262;2023-09-12T05:04:40;13.90;99.90
59469;DHT22;45277;52.768;18.262;2023-09-12T05:06:12;14.00;99.90
59469;DHT22;45277;52.768;18.262;2023-09-12T05:07:44;14.00;99.90
59469;DHT22;45277;52.768;18.262;2023-09-12T05:09:16;14.10;99.90
59469;DHT22;45277;52.768;18.262;2023-09-12T05:10:47;14.10;99.90
59469;DHT22;45277;52.768;18.262;2023-09-12T05:12:19;14.20;99.90
59469;DHT22;45277;52.768;18.262;2023-09-12T05:13:50;14.30;99.90
59469;DHT22;45277;52.768;18.262;2023-09-12T05:15:21;14.30;99.90
59469;DHT22;45277;52.768;18.262;2023-09-12T05:16:53;14.40;99.90
59469;DHT22;45277;52.768;18.262;2023-09-12T05:18:24;14.50;99.90
59469;DHT22;45277;52.768;18.262;2023-09-12T05:19:56;14.50;99.90
59469;DHT22;45277;52.768;18.262;2023-09-12T05:21:28;14.60;99.90
59469;DHT22;45277;52.768;18.262;2023-09-12T05:22:59;14.70;99.90
59469;DHT22;45277;52.768;18.262;2023-09-12T05:24:31;14.70;99.90
59469;DHT22;45277;52.768;18.262;2023-09-12T05:26:02;14.80;99.90
59469;DHT22;45277;52.768;18.262;2023-09-12T05:27:34;14.80;99.90
59469;DHT22;45277;52.768;18.262;2023-09-12T05:29:05;14.90;99.90
59469;DHT22;45277;52.768;18.262;2023-09-12T05:30:37;14.90;99.90
59469;DHT22;45277;52.768;18.262;2023-09-12T05:32:08;15.00;99.90
59469;DHT22;45277;52.768;18.262;2023-09-12T05:33:40;15.10;99.90
59469;DHT22;45277;52.768;18.262;2023-09-12T05:35:11;15.10;99.90
59469;DHT22;45277;52.768;18.262;2023-09-12T05:36:43;15.20;99.90
59469;DHT22;45277;52.768;18.262;2023-09-12T05:38:14;15.30;99.90
59469;DHT22;45277;52.768;18.262;2023-09-12T05:39:46;15.30;99.90
59469;DHT22;45277;52.768;18.262;2023-09-12T05:41:17;15.40;99.90
59469;DHT22;45277;52.768;18.262;2023-09-12T05:42:49;15.40;99.90
59469;DHT22;45277;52.768;18.262;2023-09-12T05:44:20;15.50;99.90
59469;DHT22;45277;52.768;18.262;2023-09-12T05:45:52;15.50;99.90
59469;DHT22;45277;52.768;18.262;2023-09-12T05:47:24;15.60;99.90
59469;DHT22;45277;52.768;18.262;2023-09-12T05:48:55;15.60;99.90
59469;DHT22;45277;52.768;18.262;2023-09-12T05:50:27;15.70;99.90
59469;DHT22;45277;52.768;18.262;2023-09-12T05:51:58;15.70;99.90
59469;DHT22;45277;52.768;18.262;2023-09-12T05:53:29;15.80;99.90
59469;DHT22;45277;52.768;18.262;2023-09-12T05:55:01;15.90;99.90
59469;DHT22;45277;52.768;18.262;2023-09-12T05:56:33;16.00;99.90
59469;DHT22;45277;52.768;18.262;2023-09-12T05:58:05;16.10;99.90
59469;DHT22;45277;52.768;18.262;2023-09-12T05:59:39;16.20;99.90
59469;DHT22;45277;52.768;18.262;2023-09-12T06:01:10;16.20;99.90
59469;DHT22;45277;52.768;18.262;2023-09-12T06:02:42;16.30;99.90
59469;DHT22;45277;52.768;18.262;2023-09-12T06:04:13;16.40;99.90
59469;DHT22;45277;52.768;18.262;2023-09-12T06:05:45;16.50;99.90
59469;DHT22;45277;52.768;18.262;2023-09-12T06:07:17;16.50;99.90
59469;DHT22;45277;52.768;18.262;2023-09-12T06:08:48;16.60;99.90
59469;DHT22;45277;52.768;18.262;2023-09-12T06:10:19;16.70;99.90
59469;DHT22;45277;52.768;18.262;2023-09-12T06:11:51;16.90;99.90
59469;DHT22;45277;52.768;18.262;2023-09-12T06:13:23;17.00;99.90
59469;DHT22;45277;52.768;18.262;2023-09-12T06:14:55;17.00;99.90
59469;DHT22;45277;52.768;18.262;2023-09-12T06:16:27;17.10;99.90
59469;DHT22;45277;52.768;18.262;2023-09-12T06:17:59;17.20;99.90
59469;DHT22;45277;52.768;18.262;2023-09-12T06:19:30;17.40;99.90
59469;DHT22;45277;52.768;18.262;2023-09-12T06:21:02;17.50;99.90
59469;DHT22;45277;52.768;18.262;2023-09-12T06:22:35;17.60;99.90
59469;DHT22;45277;52.768;18.262;2023-09-12T06:24:17;17.70;99.90
59469;DHT22;45277;52.768;18.262;2023-09-12T06:25:49;17.80;99.90
59469;DHT22;45277;52.768;18.262;2023-09-12T06:27:21;17.90;99.90
59469;DHT22;45277;52.768;18.262;2023-09-12T06:28:52;18.00;99.90
59469;DHT22;45277;52.768;18.262;2023-09-12T06:30:24;18.10;99.90
59469;DHT22;45277;52.768;18.262;2023-09-12T06:31:55;18.30;99.90
59469;DHT22;45277;52.768;18.262;2023-09-12T06:33:27;18.40;99.90
59469;DHT22;45277;52.768;18.262;2023-09-12T06:34:59;18.60;99.90
59469;DHT22;45277;52.768;18.262;2023-09-12T06:36:30;18.70;99.90
59469;DHT22;45277;52.768;18.262;2023-09-12T06:38:02;18.80;99.90
59469;DHT22;45277;52.768;18.262;2023-09-12T06:39:34;18.90;99.90
59469;DHT22;45277;52.768;18.262;2023-09-12T06:41:05;19.10;99.90
59469;DHT22;45277;52.768;18.262;2023-09-12T06:42:36;19.20;99.90
59469;DHT22;45277;52.768;18.262;2023-09-12T06:44:08;19.30;99.90
59469;DHT22;45277;52.768;18.262;2023-09-12T06:45:42;19.40;99.90
59469;DHT22;45277;52.768;18.262;2023-09-12T06:47:14;19.60;99.90
59469;DHT22;45277;52.768;18.262;2023-09-12T06:48:46;19.70;99.90
59469;DHT22;45277;52.768;18.262;2023-09-12T06:50:17;19.80;99.90
59469;DHT22;45277;52.768;18.262;2023-09-12T06:51:48;19.90;99.90
59469;DHT22;45277;52.768;18.262;2023-09-12T06:53:20;20.00;99.90
59469;DHT22;45277;52.768;18.262;2023-09-12T06:54:52;20.10;99.90
59469;DHT22;45277;52.768;18.262;2023-09-12T06:56:23;20.20;99.90
59469;DHT22;45277;52.768;18.262;2023-09-12T06:57:55;20.30;99.90
59469;DHT22;45277;52.768;18.262;2023-09-12T06:59:26;20.40;99.90
59469;DHT22;45277;52.768;18.262;2023-09-12T07:01:07;20.60;99.90
59469;DHT22;45277;52.768;18.262;2023-09-12T07:02:39;20.70;99.90
59469;DHT22;45277;52.768;18.262;2023-09-12T07:04:10;20.80;99.90
59469;DHT22;45277;52.768;18.262;2023-09-12T07:05:42;21.00;99.90
59469;DHT22;45277;52.768;18.262;2023-09-12T07:07:14;21.10;99.90
59469;DHT22;45277;52.768;18.262;2023-09-12T07:08:45;21.20;99.90
59469;DHT22;45277;52.768;18.262;2023-09-12T07:10:17;21.30;99.90
59469;DHT22;45277;52.768;18.262;2023-09-12T07:11:48;21.40;99.90
59469;DHT22;45277;52.768;18.262;2023-09-12T07:13:21;21.50;99.90
59469;DHT22;45277;52.768;18.262;2023-09-12T07:14:52;21.50;99.90
59469;DHT22;45277;52.768;18.262;2023-09-12T07:16:24;21.60;99.90
59469;DHT22;45277;52.768;18.262;2023-09-12T07:17:55;21.60;99.90
59469;DHT22;45277;52.768;18.262;2023-09-12T07:19:27;21.70;99.90
59469;DHT22;45277;52.768;18.262;2023-09-12T07:21:03;21.80;99.90
59469;DHT22;45277;52.768;18.262;2023-09-12T07:22:35;21.90;99.90
59469;DHT22;45277;52.768;18.262;2023-09-12T07:24:06;22.00;99.90
59469;DHT22;45277;52.768;18.262;2023-09-12T07:25:39;22.10;99.90
59469;DHT22;45277;52.768;18.262;2023-09-12T07:27:13;22.20;99.90
59469;DHT22;45277;52.768;18.262;2023-09-12T07:28:45;22.30;99.90
59469;DHT22;45277;52.768;18.262;2023-09-12T07:30:17;22.40;99.90
59469;DHT22;45277;52.768;18.262;2023-09-12T07:31:52;22.50;99.90
59469;DHT22;45277;52.768;18.262;2023-09-12T07:33:24;22.60;99.90
59469;DHT22;45277;52.768;18.262;2023-09-12T07:34:56;22.80;99.90
59469;DHT22;45277;52.768;18.262;2023-09-12T07:36:27;22.80;99.90
59469;DHT22;45277;52.768;18.262;2023-09-12T07:37:59;23.00;99.90
59469;DHT22;45277;52.768;18.262;2023-09-12T07:39:31;23.10;99.90
59469;DHT22;45277;52.768;18.262;2023-09-12T07:41:02;23.20;99.90
59469;DHT22;45277;52.768;18.262;2023-09-12T07:42:34;23.30;99.90
59469;DHT22;45277;52.768;18.262;2023-09-12T07:44:05;23.40;99.90
59469;DHT22;45277;52.768;18.262;2023-09-12T07:45:39;23.50;99.90
59469;DHT22;45277;52.768;18.262;2023-09-12T07:47:10;23.70;99.90
59469;DHT22;45277;52.768;18.262;2023-09-12T07:48:42;23.70;99.90
59469;DHT22;45277;52.768;18.262;2023-09-12T07:50:13;23.90;93.40
59469;DHT22;45277;52.768;18.262;2023-09-12T07:51:44;24.00;82.30
59469;DHT22;45277;52.768;18.262;2023-09-12T07:53:16;24.00;90.00
59469;DHT22;45277;52.768;18.262;2023-09-12T07:54:49;24.10;58.80
59469;DHT22;45277;52.768;18.262;2023-09-12T07:56:24;24.20;59.80
59469;DHT22;45277;52.768;18.262;2023-09-12T07:57:55;24.30;53.00
59469;DHT22;45277;52.768;18.262;2023-09-12T07:59:27;24.40;56.40
59469;DHT22;45277;52.768;18.262;2023-09-12T08:00:58;24.50;53.10
59469;DHT22;45277;52.768;18.262;2023-09-12T08:02:30;24.60;47.10
59469;DHT22;45277;52.768;18.262;2023-09-12T08:04:02;24.60;54.30
59469;DHT22;45277;52.768;18.262;2023-09-12T08:05:33;24.80;41.40
59469;DHT22;45277;52.768;18.262;2023-09-12T08:07:05;24.90;29.10
59469;DHT22;45277;52.768;18.262;2023-09-12T08:08:37;24.90;47.70
59469;DHT22;45277;52.768;18.262;2023-09-12T08:10:09;25.00;31.80
59469;DHT22;45277;52.768;18.262;2023-09-12T08:11:41;25.10;25.70
59469;DHT22;45277;52.768;18.262;2023-09-12T08:13:13;25.10;22.20
59469;DHT22;45277;52.768;18.262;2023-09-12T08:14:44;25.10;21.30
59469;DHT22;45277;52.768;18.262;2023-09-12T08:16:17;25.20;11.60
59469;DHT22;45277;52.768;18.262;2023-09-12T08:17:48;25.20;14.80
59469;DHT22;45277;52.768;18.262;2023-09-12T08:19:23;25.30;17.00
59469;DHT22;45277;52.768;18.262;2023-09-12T08:20:56;25.30;12.90
59469;DHT22;45277;52.768;18.262;2023-09-12T08:22:30;25.40;13.00
59469;DHT22;45277;52.768;18.262;2023-09-12T08:24:02;25.50;9.60
59469;DHT22;45277;52.768;18.262;2023-09-12T08:25:35;25.50;10.60
59469;DHT22;45277;52.768;18.262;2023-09-12T08:27:07;25.50;15.20
59469;DHT22;45277;52.768;18.262;2023-09-12T08:28:40;25.60;15.40
59469;DHT22;45277;52.768;18.262;2023-09-12T08:30:13;25.70;6.30
59469;DHT22;45277;52.768;18.262;2023-09-12T08:31:44;25.80;7.30
59469;DHT22;45277;52.768;18.262;2023-09-12T08:33:19;25.90;4.60
59469;DHT22;45277;52.768;18.262;2023-09-12T08:34:51;26.00;5.90
59469;DHT22;45277;52.768;18.262;2023-09-12T08:36:23;26.10;3.00
59469;DHT22;45277;52.768;18.262;2023-09-12T08:37:54;26.10;1.00
59469;DHT22;45277;52.768;18.262;2023-09-12T08:39:27;26.20;1.00
59469;DHT22;45277;52.768;18.262;2023-09-12T08:40:59;26.40;1.00
59469;DHT22;45277;52.768;18.262;2023-09-12T08:42:31;26.50;1.00
59469;DHT22;45277;52.768;18.262;2023-09-12T08:44:04;26.60;1.00
59469;DHT22;45277;52.768;18.262;2023-09-12T08:45:37;26.60;1.00
59469;DHT22;45277;52.768;18.262;2023-09-12T08:47:09;26.70;1.00
59469;DHT22;45277;52.768;18.262;2023-09-12T08:48:45;26.80;1.00
59469;DHT22;45277;52.768;18.262;2023-09-12T08:50:17;27.00;1.00
59469;DHT22;45277;52.768;18.262;2023-09-12T08:51:48;27.10;1.00
59469;DHT22;45277;52.768;18.262;2023-09-12T08:53:20;27.20;1.00
59469;DHT22;45277;52.768;18.262;2023-09-12T08:54:53;27.20;1.00
59469;DHT22;45277;52.768;18.262;2023-09-12T08:56:24;27.30;1.00
59469;DHT22;45277;52.768;18.262;2023-09-12T08:57:57;27.30;1.00
59469;DHT22;45277;52.768;18.262;2023-09-12T08:59:31;27.40;1.00
59469;DHT22;45277;52.768;18.262;2023-09-12T09:01:06;27.40;1.00
59469;DHT22;45277;52.768;18.262;2023-09-12T09:02:39;27.40;1.00
59469;DHT22;45277;52.768;18.262;2023-09-12T09:04:11;27.50;1.00
59469;DHT22;45277;52.768;18.262;2023-09-12T09:05:43;27.60;1.00
59469;DHT22;45277;52.768;18.262;2023-09-12T09:07:16;27.60;1.00
59469;DHT22;45277;52.768;18.262;2023-09-12T09:08:49;27.70;1.00
59469;DHT22;45277;52.768;18.262;2023-09-12T09:10:23;27.80;1.00
59469;DHT22;45277;52.768;18.262;2023-09-12T09:11:55;27.80;1.00
59469;DHT22;45277;52.768;18.262;2023-09-12T09:13:26;27.90;1.00
59469;DHT22;45277;52.768;18.262;2023-09-12T09:14:58;28.00;1.00
59469;DHT22;45277;52.768;18.262;2023-09-12T09:16:30;28.00;1.00
59469;DHT22;45277;52.768;18.262;2023-09-12T09:18:02;28.00;1.00
59469;DHT22;45277;52.768;18.262;2023-09-12T09:19:42;28.00;1.00
59469;DHT22;45277;52.768;18.262;2023-09-12T09:21:18;28.10;1.00
59469;DHT22;45277;52.768;18.262;2023-09-12T09:24:32;27.90;1.00
59469;DHT22;45277;52.768;18.262;2023-09-12T09:26:04;27.90;1.00
59469;DHT22;45277;52.768;18.262;2023-09-12T09:27:37;28.00;1.00
59469;DHT22;45277;52.768;18.262;2023-09-12T09:29:10;28.10;1.00
59469;DHT22;45277;52.768;18.262;2023-09-12T09:30:47;28.10;1.00
59469;DHT22;45277;52.768;18.262;2023-09-12T09:32:19;28.20;1.00
59469;DHT22;45277;52.768;18.262;2023-09-12T09:33:52;28.40;1.00
59469;DHT22;45277;52.768;18.262;2023-09-12T09:35:24;28.60;1.00
59469;DHT22;45277;52.768;18.262;2023-09-12T09:36:56;28.70;1.00
59469;DHT22;45277;52.768;18.262;2023-09-12T09:38:28;28.80;1.00
59469;DHT22;45277;52.768;18.262;2023-09-12T09:40:00;28.90;1.00
59469;DHT22;45277;52.768;18.262;2023-09-12T09:41:31;29.00;1.00